DW6101 Cognac FR current weather conditions

sailwx.info

Wind from 260 at 2 knots gusting 5

Air temperature 6.7° C
Dewpoint 5.8° C

Last reported at 2017-Dec-15 17:06 UTC.
Time now 2017-Dec-15 18:16 UTC

Location: N 45°42' W 000°20'.
View on Google Maps.

See reports from other nearby stations

  
Tides and Currents Weather Stations Pressure Air Temp Water Temp Dewpoint Dewpoint Depression Visibility Wind Speed Wind Dir Waves Ship Positions
date/time (UTC)wind fromknots sea level pressurealtimeterstation pressurevisibilityair tempwater tempwave heightnotes
2017-Dec-15 18:01 273 2 gusting 6 6.1
2017-Dec-15 17:41 248 4 gusting 6 6.7
2017-Dec-15 17:31 249 4 gusting 6 6.7
2017-Dec-15 17:16 248 3 gusting 5 6.7
2017-Dec-15 17:11 248 2 gusting 5 6.7
2017-Dec-15 17:06 260 2 gusting 5 6.7
2017-Dec-15 17:01 248 2 gusting 5 6.7
2017-Dec-15 16:46 255 3 gusting 5 7.2
2017-Dec-15 16:41 270 3 gusting 5 7.2
2017-Dec-15 16:36 248 4 gusting 5 7.2
2017-Dec-15 15:46 261 6 gusting 11 8.3
2017-Dec-15 15:16 246 3 gusting 6 8.9
2017-Dec-15 15:11 266 5 gusting 6 8.9
2017-Dec-15 14:46 255 5 gusting 7 8.3
2017-Dec-15 14:36 260 4 gusting 5 8.3
2017-Dec-15 14:16 278 4 gusting 5 8.3
2017-Dec-15 14:11 255 5 gusting 6 8.3
2017-Dec-15 14:06 256 6 gusting 7 8.3
2017-Dec-15 14:01 269 5 gusting 6 8.3
2017-Dec-15 13:46 248 5 gusting 5 7.8
2017-Dec-15 13:41 263 4 gusting 2 7.8
2017-Dec-15 13:36 270 2 gusting 4 7.8
2017-Dec-15 13:31 248 5 gusting 5 7.8
2017-Dec-15 13:06 285 2 gusting 5 6.1
2017-Dec-15 12:46 334 4 gusting 7 6.1
2017-Dec-15 12:36 302 6 gusting 10 6.7
2017-Dec-15 12:31 311 5 gusting 8 6.7
2017-Dec-15 12:11 242 5 gusting 7 7.2
2017-Dec-15 12:06 229 3 gusting 5 7.2
2017-Dec-15 11:31 200 2 gusting 5 8.9
2017-Dec-15 11:16 217 2 gusting 5 8.9
2017-Dec-15 11:11 209 2 gusting 6 8.9
2017-Dec-15 11:06 213 1 gusting 2 8.9
2017-Dec-15 11:01 198 3 gusting 5 8.9
2017-Dec-15 10:41 240 5 gusting 8 8.9
2017-Dec-15 10:16 214 4 gusting 6 8.3
2017-Dec-15 10:11 200 4 gusting 6 8.3
2017-Dec-15 10:01 206 4 gusting 6 8.3
2017-Dec-15 09:46 185 3 gusting 5 5.0
2017-Dec-15 09:36 176 4 gusting 5 5.0
2017-Dec-15 09:31 186 4 gusting 6 5.0
2017-Dec-15 09:16 192 4 gusting 6 5.0
2017-Dec-15 09:11 176 3 gusting 6 5.0
2017-Dec-15 09:06 171 4 gusting 6 5.0
2017-Dec-15 09:01 180 4 gusting 6 5.0
2017-Dec-15 08:46 158 2 gusting 4 5.0
2017-Dec-15 08:16 245 1 gusting 2 5.0
2017-Dec-15 08:11 254 1 gusting 2 5.0
2017-Dec-15 08:06 248 1 gusting 4 5.0
2017-Dec-15 08:01 203 1 gusting 2 5.0
2017-Dec-15 07:46 198 1 gusting 2 5.0
2017-Dec-15 07:36 202 2 gusting 4 5.0
2017-Dec-15 07:31 202 1 gusting 6 5.6
2017-Dec-15 07:16 251 6 gusting 8 4.4
2017-Dec-15 07:06 237 1 gusting 5 2.2
2017-Dec-15 07:01 248 4 gusting 5 2.2
2017-Dec-15 06:46 248 4 gusting 5 2.2
2017-Dec-15 06:41 248 4 gusting 5 2.2
2017-Dec-15 06:36 248 4 gusting 5 2.2
2017-Dec-15 06:11 248 4 gusting 5 2.2
2017-Dec-15 05:31 218 2 gusting 4 2.2
2017-Dec-15 05:11 225 1 gusting 2 2.2
2017-Dec-15 05:06 225 1 gusting 2 2.2
2017-Dec-15 04:46 225 1 gusting 2 2.2
2017-Dec-15 04:41 229 1 gusting 1 2.2
2017-Dec-15 04:16 225 2 gusting 4 2.2
2017-Dec-15 04:11 232 2 gusting 4 2.2
2017-Dec-15 04:06 223 2 gusting 4 2.2
2017-Dec-15 04:01 222 4 gusting 5 2.2
2017-Dec-15 03:41 225 1 gusting 2 2.2
2017-Dec-15 03:16 283 1 gusting 2 2.2
2017-Dec-15 03:11 198 1 gusting 2 2.2
2017-Dec-15 03:06 180 1 gusting 2 2.2
2017-Dec-15 03:01 202 1 gusting 1 2.2
2017-Dec-15 02:41 225 2.2
2017-Dec-15 02:36 225 0 gusting 1 2.2
2017-Dec-15 02:31 236 1 gusting 4 2.2
2017-Dec-15 02:06 266 3 gusting 6 2.2
2017-Dec-15 02:01 248 5 gusting 8 2.2
2017-Dec-15 01:41 205 1 gusting 2 2.2
2017-Dec-15 01:16 225 1 gusting 1 2.2
2017-Dec-15 01:11 202 1 gusting 1 2.2
2017-Dec-15 01:06 215 1 gusting 2 2.2
2017-Dec-15 01:01 203 1 gusting 5 2.2
2017-Dec-15 00:46 215 2 gusting 5 2.2
2017-Dec-15 00:41 210 4 gusting 5 2.2
2017-Dec-15 00:36 233 3 gusting 5 2.2
2017-Dec-15 00:31 237 2 gusting 5 2.2
2017-Dec-14 18:06 248 4 gusting 7 2.2
2017-Dec-14 18:01 244 5 gusting 14 2.2
2017-Dec-14 17:46 240 8 gusting 17 2.2
2017-Dec-14 17:41 252 11 gusting 14 2.2
2017-Dec-14 17:36 247 7 gusting 8 2.2
2017-Dec-14 17:01 228 6 gusting 10 2.2
2017-Dec-14 16:46 235 8 gusting 12 2.2
2017-Dec-14 16:41 240 5 gusting 8 2.2
2017-Dec-14 16:36 248 7 gusting 12 2.2
2017-Dec-14 16:11 236 9 gusting 15 2.2
2017-Dec-14 16:06 240 7 gusting 13 2.2
2017-Dec-14 16:01 239 7 gusting 13 2.2
2017-Dec-14 15:41 241 7 gusting 12 2.2
2017-Dec-14 15:36 222 8 gusting 11 2.2
2017-Dec-14 15:31 242 9 gusting 13 2.2
2017-Dec-14 15:06 244 11 gusting 20 2.2
2017-Dec-14 15:01 248 13 gusting 20 2.2
2017-Dec-14 14:46 231 6 gusting 12 2.2
2017-Dec-14 14:41 225 6 gusting 10 2.2
2017-Dec-14 14:36 225 6 gusting 8 2.2
2017-Dec-14 14:31 226 6 gusting 13 2.2
2017-Dec-14 14:16 243 7 gusting 10 2.2
2017-Dec-14 14:11 241 7 gusting 11 2.2
2017-Dec-14 14:06 221 8 gusting 13 2.2
2017-Dec-14 13:41 230 7 gusting 13 2.2
2017-Dec-14 13:36 244 10 gusting 14 2.2
2017-Dec-14 13:31 244 10 gusting 14 2.2
2017-Dec-14 13:06 223 7 gusting 12 2.2
2017-Dec-14 13:01 217 8 gusting 14 2.2
2017-Dec-14 12:46 202 5 gusting 7 2.2
2017-Dec-14 12:41 213 6 gusting 11 2.2
2017-Dec-14 12:36 245 7 gusting 13 2.2
2017-Dec-14 12:31 232 6 gusting 12 2.2
2017-Dec-14 12:16 242 6 gusting 11 2.2
2017-Dec-14 12:11 226 6 gusting 10 2.2
2017-Dec-14 12:06 219 7 gusting 13 2.2
2017-Dec-14 11:41 221 6 gusting 11 2.2
2017-Dec-14 11:36 225 6 gusting 11 2.2
2017-Dec-14 11:31 211 5 gusting 11 2.2
2017-Dec-14 11:16 206 4 gusting 8 2.2
2017-Dec-14 11:11 218 4 gusting 6 2.2
2017-Dec-14 11:06 211 4 gusting 7 2.2
2017-Dec-14 11:01 218 5 gusting 8 2.2
2017-Dec-14 10:46 213 3 gusting 6 2.2
2017-Dec-14 10:36 200 5 gusting 10 2.2
2017-Dec-14 10:31 193 2 gusting 7 2.2
2017-Dec-14 10:16 185 3 gusting 5 2.2
2017-Dec-14 10:11 198 2 gusting 5 2.2
2017-Dec-14 10:01 208 3 gusting 8 2.2
2017-Dec-14 09:41 206 2 gusting 5 2.2
2017-Dec-14 09:36 225 3 gusting 6 2.2
2017-Dec-14 09:31 206 2 gusting 6 2.2
2017-Dec-14 09:11 202 1 gusting 2 2.2
2017-Dec-14 08:46 202 2 gusting 5 2.2
2017-Dec-14 08:41 187 2 gusting 6 2.2
2017-Dec-14 08:36 187 4 gusting 6 2.2
2017-Dec-14 08:31 202 1 gusting 5 2.2
2017-Dec-14 07:46 209 1 gusting 4 2.2
2017-Dec-14 07:41 194 1 gusting 2 2.2
2017-Dec-14 07:31 202 1 gusting 5 2.2
2017-Dec-14 07:16 199 1 gusting 4 2.2
2017-Dec-14 07:11 202 1 gusting 4 2.2
2017-Dec-14 07:06 209 1 gusting 2 2.2
2017-Dec-14 07:01 190 1 gusting 2 2.2
2017-Dec-14 06:46 205 1 gusting 6 2.2
2017-Dec-14 06:41 233 1 gusting 4 2.2
2017-Dec-14 06:36 248 1 gusting 2 2.2
2017-Dec-14 06:31 228 1 gusting 7 2.2
2017-Dec-14 06:11 287 4 gusting 7 2.2
2017-Dec-14 06:06 304 2 gusting 5 2.2
2017-Dec-14 06:01 251 3 gusting 4 2.2
2017-Dec-14 05:46 229 2 gusting 4 2.2
2017-Dec-14 05:41 237 3 gusting 6 2.2
2017-Dec-14 05:31 236 4 gusting 5 2.2
2017-Dec-14 05:16 248 4 gusting 6 2.2
2017-Dec-14 05:01 248 6 gusting 7 2.2
2017-Dec-14 04:46 240 4 gusting 6 2.2
2017-Dec-14 04:41 240 5 gusting 6 2.2
2017-Dec-14 04:36 229 2 gusting 5 2.2
2017-Dec-14 03:46 257 4 gusting 7 2.2
2017-Dec-14 03:31 248 5 gusting 6 2.2
2017-Dec-14 03:16 244 5 gusting 6 2.2
2017-Dec-14 03:11 243 4 gusting 6 2.2
2017-Dec-14 03:06 241 4 gusting 5 2.2
2017-Dec-14 03:01 251 4 gusting 7 2.2
2017-Dec-14 02:46 240 5 gusting 7 2.2
2017-Dec-14 02:41 244 6 gusting 8 2.2
2017-Dec-14 02:36 243 6 gusting 8 2.2
2017-Dec-14 02:16 216 5 gusting 7 2.2
2017-Dec-14 02:11 242 6 gusting 8 2.2
2017-Dec-14 02:06 229 5 gusting 6 2.2
2017-Dec-14 01:46 240 5 gusting 10 2.2
2017-Dec-14 01:41 248 5 gusting 6 2.2
2017-Dec-14 01:36 238 5 gusting 6 2.2
2017-Dec-14 01:16 248 5 gusting 7 2.2
2017-Dec-14 01:11 243 5 gusting 6 2.2
2017-Dec-14 00:41 248 5 gusting 7 2.2
2017-Dec-14 00:36 248 5 gusting 7 2.2
2017-Dec-14 00:16 248 6 gusting 8 2.2
2017-Dec-14 00:06 248 7 gusting 10 2.2
2017-Dec-14 00:01 240 5 gusting 8 2.2
2017-Dec-13 23:46 248 6 gusting 11 2.2
2017-Dec-13 23:36 248 6 gusting 8 2.2
2017-Dec-13 23:16 248 6 gusting 10 2.2
2017-Dec-13 23:11 244 5 gusting 7 2.2
2017-Dec-13 23:06 236 5 gusting 7 2.2
2017-Dec-13 23:01 248 6 gusting 12 2.2
2017-Dec-13 22:46 248 6 gusting 11 2.2
2017-Dec-13 22:36 245 6 gusting 7 2.2
2017-Dec-13 22:16 248 6 gusting 8 2.2
2017-Dec-13 22:11 234 7 gusting 11 2.2
2017-Dec-13 22:06 248 7 gusting 12 2.2
2017-Dec-13 22:01 248 6 gusting 11 2.2
2017-Dec-13 21:46 233 6 gusting 10 2.2
2017-Dec-13 21:36 248 8 gusting 13 2.2
2017-Dec-13 21:31 246 9 gusting 13 2.2
2017-Dec-13 21:11 248 9 gusting 14 2.2
2017-Dec-13 21:06 232 7 gusting 10 2.2
2017-Dec-13 20:46 244 7 gusting 12 2.2
2017-Dec-13 20:41 233 6 gusting 11 2.2
2017-Dec-13 20:36 233 7 gusting 10 2.2
2017-Dec-13 20:31 240 6 gusting 11 2.2
2017-Dec-13 20:16 246 6 gusting 12 2.2
2017-Dec-13 20:11 248 7 gusting 12 2.2
2017-Dec-13 20:01 254 7 gusting 12 2.2
2017-Dec-13 19:46 248 9 gusting 13 2.2
2017-Dec-13 19:41 248 12 gusting 14 2.2
2017-Dec-13 19:31 248 7 gusting 13 2.2
2017-Dec-13 19:11 248 10 gusting 12 2.2
2017-Dec-13 19:06 255 8 gusting 12 2.2
2017-Dec-13 19:01 248 10 gusting 15 2.2
2017-Dec-13 18:46 248 11 gusting 18 2.2
2017-Dec-13 18:41 241 12 gusting 17 2.2
2017-Dec-13 18:36 248 11 gusting 17 2.2
2017-Dec-13 18:16 263 11 gusting 20 2.2
2017-Dec-13 18:11 239 13 gusting 18 2.2
2017-Dec-13 18:06 255 11 gusting 18 2.2
2017-Dec-13 18:01 248 9 gusting 11 2.2